sensor_id;sensor_type;location;lat;lon;timestamp;temperature;humidity
2447;DHT22;26430;48.818;9.244;2023-06-22T00:00:43;22.80;99.90
2447;DHT22;26430;48.818;9.244;2023-06-22T00:03:10;22.60;99.90
2447;DHT22;26430;48.818;9.244;2023-06-22T00:05:36;22.50;99.90
2447;DHT22;26430;48.818;9.244;2023-06-22T00:08:04;22.40;99.90
2447;DHT22;26430;48.818;9.244;2023-06-22T00:10:31;22.40;99.90
2447;DHT22;26430;48.818;9.244;2023-06-22T00:12:56;22.40;99.90
2447;DHT22;26430;48.818;9.244;2023-06-22T00:15:22;22.50;99.90
2447;DHT22;26430;48.818;9.244;2023-06-22T00:17:49;22.50;99.90
2447;DHT22;26430;48.818;9.244;2023-06-22T00:20:14;22.40;99.90
2447;DHT22;26430;48.818;9.244;2023-06-22T00:22:40;22.40;99.90
2447;DHT22;26430;48.818;9.244;2023-06-22T00:25:07;22.40;99.90
2447;DHT22;26430;48.818;9.244;2023-06-22T00:27:32;22.40;99.90
2447;DHT22;26430;48.818;9.244;2023-06-22T00:29:58;22.30;99.90
2447;DHT22;26430;48.818;9.244;2023-06-22T00:32:23;22.10;99.90
2447;DHT22;26430;48.818;9.244;2023-06-22T00:34:49;22.10;99.90
2447;DHT22;26430;48.818;9.244;2023-06-22T00:37:16;22.00;99.90
2447;DHT22;26430;48.818;9.244;2023-06-22T00:39:42;22.00;99.90
2447;DHT22;26430;48.818;9.244;2023-06-22T00:42:08;22.00;99.90
2447;DHT22;26430;48.818;9.244;2023-06-22T00:44:35;22.00;99.90
2447;DHT22;26430;48.818;9.244;2023-06-22T00:47:01;22.00;99.90
2447;DHT22;26430;48.818;9.244;2023-06-22T00:49:27;22.10;99.90
2447;DHT22;26430;48.818;9.244;2023-06-22T00:51:53;22.30;99.90
2447;DHT22;26430;48.818;9.244;2023-06-22T00:54:19;22.30;99.90
2447;DHT22;26430;48.818;9.244;2023-06-22T00:56:51;22.30;99.90
2447;DHT22;26430;48.818;9.244;2023-06-22T00:59:20;22.30;99.90
2447;DHT22;26430;48.818;9.244;2023-06-22T01:01:46;22.40;99.90
2447;DHT22;26430;48.818;9.244;2023-06-22T01:04:12;22.70;99.90
2447;DHT22;26430;48.818;9.244;2023-06-22T01:06:45;23.00;99.90
2447;DHT22;26430;48.818;9.244;2023-06-22T01:09:15;22.80;99.90
2447;DHT22;26430;48.818;9.244;2023-06-22T01:11:47;22.40;99.90
2447;DHT22;26430;48.818;9.244;2023-06-22T01:14:27;22.20;99.90
2447;DHT22;26430;48.818;9.244;2023-06-22T01:16:54;22.10;99.90
2447;DHT22;26430;48.818;9.244;2023-06-22T01:19:46;22.50;99.90
2447;DHT22;26430;48.818;9.244;2023-06-22T01:22:15;22.40;99.90
2447;DHT22;26430;48.818;9.244;2023-06-22T01:25:09;21.80;99.90
2447;DHT22;26430;48.818;9.244;2023-06-22T01:30:33;22.00;99.90
2447;DHT22;26430;48.818;9.244;2023-06-22T01:33:01;21.90;99.90
2447;DHT22;26430;48.818;9.244;2023-06-22T01:35:29;21.70;99.90
2447;DHT22;26430;48.818;9.244;2023-06-22T01:37:55;21.60;99.90
2447;DHT22;26430;48.818;9.244;2023-06-22T01:40:22;21.60;99.90
2447;DHT22;26430;48.818;9.244;2023-06-22T01:42:48;21.70;99.90
2447;DHT22;26430;48.818;9.244;2023-06-22T01:45:15;21.70;99.90
2447;DHT22;26430;48.818;9.244;2023-06-22T01:47:42;21.60;99.90
2447;DHT22;26430;48.818;9.244;2023-06-22T01:50:08;21.50;99.90
2447;DHT22;26430;48.818;9.244;2023-06-22T01:52:34;21.50;99.90
2447;DHT22;26430;48.818;9.244;2023-06-22T01:55:00;21.60;99.90
2447;DHT22;26430;48.818;9.244;2023-06-22T01:57:27;21.50;99.90
2447;DHT22;26430;48.818;9.244;2023-06-22T01:59:56;21.20;99.90
2447;DHT22;26430;48.818;9.244;2023-06-22T02:02:24;21.20;99.90
2447;DHT22;26430;48.818;9.244;2023-06-22T02:05:01;21.20;99.90
2447;DHT22;26430;48.818;9.244;2023-06-22T02:07:33;21.20;99.90
2447;DHT22;26430;48.818;9.244;2023-06-22T02:10:00;21.10;99.90
2447;DHT22;26430;48.818;9.244;2023-06-22T02:12:28;21.10;99.90
2447;DHT22;26430;48.818;9.244;2023-06-22T02:14:54;21.10;99.90
2447;DHT22;26430;48.818;9.244;2023-06-22T02:17:21;21.20;99.90
2447;DHT22;26430;48.818;9.244;2023-06-22T02:19:46;21.00;99.90
2447;DHT22;26430;48.818;9.244;2023-06-22T02:22:12;21.10;99.90
2447;DHT22;26430;48.818;9.244;2023-06-22T02:24:40;21.20;99.90
2447;DHT22;26430;48.818;9.244;2023-06-22T02:27:06;21.40;99.90
2447;DHT22;26430;48.818;9.244;2023-06-22T02:29:32;21.10;99.90
2447;DHT22;26430;48.818;9.244;2023-06-22T02:31:58;21.00;99.90
2447;DHT22;26430;48.818;9.244;2023-06-22T02:34:24;21.00;99.90
2447;DHT22;26430;48.818;9.244;2023-06-22T02:36:50;21.10;99.90
2447;DHT22;26430;48.818;9.244;2023-06-22T02:39:25;21.10;99.90
2447;DHT22;26430;48.818;9.244;2023-06-22T02:41:53;21.10;99.90
2447;DHT22;26430;48.818;9.244;2023-06-22T02:44:19;21.10;99.90
2447;DHT22;26430;48.818;9.244;2023-06-22T02:46:45;21.00;99.90
2447;DHT22;26430;48.818;9.244;2023-06-22T02:49:11;21.00;99.90
2447;DHT22;26430;48.818;9.244;2023-06-22T02:51:42;21.00;99.90
2447;DHT22;26430;48.818;9.244;2023-06-22T02:54:08;21.00;99.90
2447;DHT22;26430;48.818;9.244;2023-06-22T02:56:33;20.90;99.90
2447;DHT22;26430;48.818;9.244;2023-06-22T02:58:59;20.90;99.90
2447;DHT22;26430;48.818;9.244;2023-06-22T03:01:27;20.90;99.90
2447;DHT22;26430;48.818;9.244;2023-06-22T03:03:53;20.80;99.90
2447;DHT22;26430;48.818;9.244;2023-06-22T03:06:20;20.80;99.90
2447;DHT22;26430;48.818;9.244;2023-06-22T03:08:49;20.80;99.90
2447;DHT22;26430;48.818;9.244;2023-06-22T03:11:15;20.80;99.90
2447;DHT22;26430;48.818;9.244;2023-06-22T03:13:41;20.80;99.90
2447;DHT22;26430;48.818;9.244;2023-06-22T03:16:06;20.70;99.90
2447;DHT22;26430;48.818;9.244;2023-06-22T03:18:32;20.70;99.90
2447;DHT22;26430;48.818;9.244;2023-06-22T03:20:57;20.70;99.90
2447;DHT22;26430;48.818;9.244;2023-06-22T03:23:23;20.60;99.90
2447;DHT22;26430;48.818;9.244;2023-06-22T03:25:49;20.60;99.90
2447;DHT22;26430;48.818;9.244;2023-06-22T03:28:14;20.60;99.90
2447;DHT22;26430;48.818;9.244;2023-06-22T03:30:40;20.50;99.90
2447;DHT22;26430;48.818;9.244;2023-06-22T03:33:06;20.50;99.90
2447;DHT22;26430;48.818;9.244;2023-06-22T03:35:31;20.50;99.90
2447;DHT22;26430;48.818;9.244;2023-06-22T03:37:57;20.50;99.90
2447;DHT22;26430;48.818;9.244;2023-06-22T03:40:22;20.50;99.90
2447;DHT22;26430;48.818;9.244;2023-06-22T03:42:48;20.70;99.90
2447;DHT22;26430;48.818;9.244;2023-06-22T03:45:14;20.70;99.90
2447;DHT22;26430;48.818;9.244;2023-06-22T03:47:39;20.70;99.90
2447;DHT22;26430;48.818;9.244;2023-06-22T03:50:05;20.60;99.90
2447;DHT22;26430;48.818;9.244;2023-06-22T03:52:31;20.70;99.90
2447;DHT22;26430;48.818;9.244;2023-06-22T03:54:57;20.60;99.90
2447;DHT22;26430;48.818;9.244;2023-06-22T03:57:23;20.60;99.90
2447;DHT22;26430;48.818;9.244;2023-06-22T03:59:49;20.60;99.90
2447;DHT22;26430;48.818;9.244;2023-06-22T04:02:14;20.60;99.90
2447;DHT22;26430;48.818;9.244;2023-06-22T04:04:40;20.50;99.90
2447;DHT22;26430;48.818;9.244;2023-06-22T04:07:06;20.40;99.90
2447;DHT22;26430;48.818;9.244;2023-06-22T04:09:31;20.50;99.90
2447;DHT22;26430;48.818;9.244;2023-06-22T04:11:57;20.50;99.90
2447;DHT22;26430;48.818;9.244;2023-06-22T04:14:22;20.50;99.90
2447;DHT22;26430;48.818;9.244;2023-06-22T04:16:48;20.50;99.90
2447;DHT22;26430;48.818;9.244;2023-06-22T04:19:14;20.60;99.90
2447;DHT22;26430;48.818;9.244;2023-06-22T04:21:44;20.70;99.90
2447;DHT22;26430;48.818;9.244;2023-06-22T04:24:11;20.70;99.90
2447;DHT22;26430;48.818;9.244;2023-06-22T04:26:37;20.70;99.90
2447;DHT22;26430;48.818;9.244;2023-06-22T04:29:03;20.90;99.90
2447;DHT22;26430;48.818;9.244;2023-06-22T04:31:31;20.90;99.90
2447;DHT22;26430;48.818;9.244;2023-06-22T04:33:57;20.90;99.90
2447;DHT22;26430;48.818;9.244;2023-06-22T04:36:35;20.90;99.90
2447;DHT22;26430;48.818;9.244;2023-06-22T04:39:05;20.90;99.90
2447;DHT22;26430;48.818;9.244;2023-06-22T04:41:31;20.90;99.90
2447;DHT22;26430;48.818;9.244;2023-06-22T04:44:15;20.90;99.90
2447;DHT22;26430;48.818;9.244;2023-06-22T04:46:57;20.90;99.90
2447;DHT22;26430;48.818;9.244;2023-06-22T04:49:27;20.90;99.90
2447;DHT22;26430;48.818;9.244;2023-06-22T04:51:58;21.00;99.90
2447;DHT22;26430;48.818;9.244;2023-06-22T04:54:24;21.00;99.90
2447;DHT22;26430;48.818;9.244;2023-06-22T04:56:50;21.00;99.90
2447;DHT22;26430;48.818;9.244;2023-06-22T04:59:26;21.00;99.90
2447;DHT22;26430;48.818;9.244;2023-06-22T05:01:54;21.00;99.90
2447;DHT22;26430;48.818;9.244;2023-06-22T05:04:20;21.20;99.90
2447;DHT22;26430;48.818;9.244;2023-06-22T05:06:45;21.30;99.90
2447;DHT22;26430;48.818;9.244;2023-06-22T05:09:11;21.40;99.90
2447;DHT22;26430;48.818;9.244;2023-06-22T05:11:37;21.40;99.90
2447;DHT22;26430;48.818;9.244;2023-06-22T05:14:03;21.30;99.90
2447;DHT22;26430;48.818;9.244;2023-06-22T05:16:28;21.40;99.90
2447;DHT22;26430;48.818;9.244;2023-06-22T05:18:54;21.20;99.90
2447;DHT22;26430;48.818;9.244;2023-06-22T05:21:26;21.10;99.90
2447;DHT22;26430;48.818;9.244;2023-06-22T05:23:52;21.30;99.90
2447;DHT22;26430;48.818;9.244;2023-06-22T05:26:19;21.30;99.90
2447;DHT22;26430;48.818;9.244;2023-06-22T05:28:45;21.50;99.90
2447;DHT22;26430;48.818;9.244;2023-06-22T05:31:17;21.30;99.90
2447;DHT22;26430;48.818;9.244;2023-06-22T05:33:43;21.30;99.90
2447;DHT22;26430;48.818;9.244;2023-06-22T05:36:09;21.20;99.90
2447;DHT22;26430;48.818;9.244;2023-06-22T05:38:36;21.20;99.90
2447;DHT22;26430;48.818;9.244;2023-06-22T05:41:02;21.30;99.90
2447;DHT22;26430;48.818;9.244;2023-06-22T05:43:28;21.40;99.90
2447;DHT22;26430;48.818;9.244;2023-06-22T05:45:53;21.50;99.90
2447;DHT22;26430;48.818;9.244;2023-06-22T05:48:19;21.50;99.90
2447;DHT22;26430;48.818;9.244;2023-06-22T05:50:44;21.60;99.90
2447;DHT22;26430;48.818;9.244;2023-06-22T05:53:10;21.70;99.90
2447;DHT22;26430;48.818;9.244;2023-06-22T05:55:35;21.80;99.90
2447;DHT22;26430;48.818;9.244;2023-06-22T05:58:01;21.70;99.90
2447;DHT22;26430;48.818;9.244;2023-06-22T06:00:28;21.80;99.90
2447;DHT22;26430;48.818;9.244;2023-06-22T06:02:54;21.80;99.90
2447;DHT22;26430;48.818;9.244;2023-06-22T06:05:19;21.90;99.90
2447;DHT22;26430;48.818;9.244;2023-06-22T06:07:45;22.00;99.90
2447;DHT22;26430;48.818;9.244;2023-06-22T06:10:11;22.00;99.90
2447;DHT22;26430;48.818;9.244;2023-06-22T06:12:37;22.00;99.90
2447;DHT22;26430;48.818;9.244;2023-06-22T06:15:03;22.00;99.90
2447;DHT22;26430;48.818;9.244;2023-06-22T06:17:29;22.20;99.90
2447;DHT22;26430;48.818;9.244;2023-06-22T06:19:55;22.20;99.90
2447;DHT22;26430;48.818;9.244;2023-06-22T06:22:20;22.10;99.90
2447;DHT22;26430;48.818;9.244;2023-06-22T06:24:47;22.20;99.90
2447;DHT22;26430;48.818;9.244;2023-06-22T06:27:13;22.20;99.90
2447;DHT22;26430;48.818;9.244;2023-06-22T06:29:39;22.20;99.90
2447;DHT22;26430;48.818;9.244;2023-06-22T06:32:05;22.30;99.90
2447;DHT22;26430;48.818;9.244;2023-06-22T06:34:31;22.30;99.90
2447;DHT22;26430;48.818;9.244;2023-06-22T06:36:56;22.40;99.90
2447;DHT22;26430;48.818;9.244;2023-06-22T06:39:22;22.50;99.90
2447;DHT22;26430;48.818;9.244;2023-06-22T06:41:47;22.60;99.90
2447;DHT22;26430;48.818;9.244;2023-06-22T06:44:13;22.80;99.90
2447;DHT22;26430;48.818;9.244;2023-06-22T06:46:39;22.70;99.90
2447;DHT22;26430;48.818;9.244;2023-06-22T06:49:04;22.70;99.90
2447;DHT22;26430;48.818;9.244;2023-06-22T06:51:30;22.90;99.90
2447;DHT22;26430;48.818;9.244;2023-06-22T06:53:55;23.00;99.90
2447;DHT22;26430;48.818;9.244;2023-06-22T06:56:21;23.00;99.90
2447;DHT22;26430;48.818;9.244;2023-06-22T06:58:49;23.20;99.90
2447;DHT22;26430;48.818;9.244;2023-06-22T07:01:15;23.30;99.90
2447;DHT22;26430;48.818;9.244;2023-06-22T07:03:40;23.40;99.90
2447;DHT22;26430;48.818;9.244;2023-06-22T07:06:06;23.40;99.90
2447;DHT22;26430;48.818;9.244;2023-06-22T07:08:31;23.40;99.90
2447;DHT22;26430;48.818;9.244;2023-06-22T07:10:57;23.30;99.90
2447;DHT22;26430;48.818;9.244;2023-06-22T07:13:23;23.40;99.90
2447;DHT22;26430;48.818;9.244;2023-06-22T07:15:48;23.50;99.90
2447;DHT22;26430;48.818;9.244;2023-06-22T07:18:14;23.60;99.90
2447;DHT22;26430;48.818;9.244;2023-06-22T07:20:40;23.70;99.90
2447;DHT22;26430;48.818;9.244;2023-06-22T07:23:06;23.70;99.90
2447;DHT22;26430;48.818;9.244;2023-06-22T07:25:32;23.70;99.90
2447;DHT22;26430;48.818;9.244;2023-06-22T07:28:02;23.90;99.90
2447;DHT22;26430;48.818;9.244;2023-06-22T07:30:32;24.00;99.90
2447;DHT22;26430;48.818;9.244;2023-06-22T07:32:58;24.00;99.90
2447;DHT22;26430;48.818;9.244;2023-06-22T07:35:29;24.10;99.90
2447;DHT22;26430;48.818;9.244;2023-06-22T07:37:55;24.20;99.90
2447;DHT22;26430;48.818;9.244;2023-06-22T07:40:20;24.20;99.90
2447;DHT22;26430;48.818;9.244;2023-06-22T07:42:46;24.30;99.90
2447;DHT22;26430;48.818;9.244;2023-06-22T07:45:14;24.40;99.90
2447;DHT22;26430;48.818;9.244;2023-06-22T07:47:39;24.60;99.90
2447;DHT22;26430;48.818;9.244;2023-06-22T07:50:05;24.80;99.90
2447;DHT22;26430;48.818;9.244;2023-06-22T07:52:31;24.80;99.90
2447;DHT22;26430;48.818;9.244;2023-06-22T07:54:57;24.80;99.90
2447;DHT22;26430;48.818;9.244;2023-06-22T07:57:23;24.90;99.90
2447;DHT22;26430;48.818;9.244;2023-06-22T07:59:57;25.00;99.90
2447;DHT22;26430;48.818;9.244;2023-06-22T08:02:23;25.10;99.90
2447;DHT22;26430;48.818;9.244;2023-06-22T08:04:48;25.20;99.90
2447;DHT22;26430;48.818;9.244;2023-06-22T08:07:14;25.30;99.90
2447;DHT22;26430;48.818;9.244;2023-06-22T08:09:46;25.50;99.90
2447;DHT22;26430;48.818;9.244;2023-06-22T08:12:12;25.50;99.90
2447;DHT22;26430;48.818;9.244;2023-06-22T08:14:38;25.60;99.90
2447;DHT22;26430;48.818;9.244;2023-06-22T08:17:04;25.70;99.90
2447;DHT22;26430;48.818;9.244;2023-06-22T08:19:30;25.80;99.90
2447;DHT22;26430;48.818;9.244;2023-06-22T08:21:55;25.90;99.90
2447;DHT22;26430;48.818;9.244;2023-06-22T08:24:21;26.00;99.90
2447;DHT22;26430;48.818;9.244;2023-06-22T08:26:47;26.00;99.90
2447;DHT22;26430;48.818;9.244;2023-06-22T08:29:12;26.10;99.90
2447;DHT22;26430;48.818;9.244;2023-06-22T08:31:38;26.10;99.90
2447;DHT22;26430;48.818;9.244;2023-06-22T08:34:04;26.20;99.90
2447;DHT22;26430;48.818;9.244;2023-06-22T08:36:29;26.20;99.90
2447;DHT22;26430;48.818;9.244;2023-06-22T08:38:58;26.10;99.90
2447;DHT22;26430;48.818;9.244;2023-06-22T08:41:26;26.30;99.90
2447;DHT22;26430;48.818;9.244;2023-06-22T08:43:52;26.50;99.90
2447;DHT22;26430;48.818;9.244;2023-06-22T08:46:19;26.70;99.90
2447;DHT22;26430;48.818;9.244;2023-06-22T08:48:48;26.60;99.90
2447;DHT22;26430;48.818;9.244;2023-06-22T08:51:14;26.60;99.90
2447;DHT22;26430;48.818;9.244;2023-06-22T08:53:39;26.60;99.90
2447;DHT22;26430;48.818;9.244;2023-06-22T08:56:05;26.70;99.90
2447;DHT22;26430;48.818;9.244;2023-06-22T08:58:30;26.80;99.90
2447;DHT22;26430;48.818;9.244;2023-06-22T09:00:56;26.80;99.90
2447;DHT22;26430;48.818;9.244;2023-06-22T09:03:22;26.80;99.90
2447;DHT22;26430;48.818;9.244;2023-06-22T09:05:51;27.00;99.90
2447;DHT22;26430;48.818;9.244;2023-06-22T09:08:17;27.20;99.90
2447;DHT22;26430;48.818;9.244;2023-06-22T09:10:42;27.40;99.90
2447;DHT22;26430;48.818;9.244;2023-06-22T09:13:08;27.40;99.90
2447;DHT22;26430;48.818;9.244;2023-06-22T09:15:34;27.30;99.90
2447;DHT22;26430;48.818;9.244;2023-06-22T09:18:00;27.10;99.90
2447;DHT22;26430;48.818;9.244;2023-06-22T09:20:26;27.20;99.90
2447;DHT22;26430;48.818;9.244;2023-06-22T09:22:51;27.40;99.90
2447;DHT22;26430;48.818;9.244;2023-06-22T09:25:17;27.50;99.90
2447;DHT22;26430;48.818;9.244;2023-06-22T09:27:46;27.70;99.90
2447;DHT22;26430;48.818;9.244;2023-06-22T09:30:11;27.90;99.90
2447;DHT22;26430;48.818;9.244;2023-06-22T09:32:37;27.90;99.90
2447;DHT22;26430;48.818;9.244;2023-06-22T09:35:05;27.60;99.90
2447;DHT22;26430;48.818;9.244;2023-06-22T09:37:35;27.70;99.90
2447;DHT22;26430;48.818;9.244;2023-06-22T09:40:01;27.80;99.90
2447;DHT22;26430;48.818;9.244;2023-06-22T09:42:29;27.90;99.90
2447;DHT22;26430;48.818;9.244;2023-06-22T09:44:55;28.00;99.90
2447;DHT22;26430;48.818;9.244;2023-06-22T09:47:21;28.00;99.90
2447;DHT22;26430;48.818;9.244;2023-06-22T09:49:46;27.90;99.90
2447;DHT22;26430;48.818;9.244;2023-06-22T09:52:12;28.00;99.90
2447;DHT22;26430;48.818;9.244;2023-06-22T09:54:37;28.10;99.90
2447;DHT22;26430;48.818;9.244;2023-06-22T09:57:03;28.20;99.90
2447;DHT22;26430;48.818;9.244;2023-06-22T09:59:29;27.90;99.90
2447;DHT22;26430;48.818;9.244;2023-06-22T10:01:54;28.10;99.90
2447;DHT22;26430;48.818;9.244;2023-06-22T10:04:20;28.30;99.90
2447;DHT22;26430;48.818;9.244;2023-06-22T10:06:45;28.40;99.90
2447;DHT22;26430;48.818;9.244;2023-06-22T10:09:11;28.50;99.90
2447;DHT22;26430;48.818;9.244;2023-06-22T10:11:37;28.70;99.90
2447;DHT22;26430;48.818;9.244;2023-06-22T10:14:02;28.80;99.90
2447;DHT22;26430;48.818;9.244;2023-06-22T10:16:32;28.80;99.90
2447;DHT22;26430;48.818;9.244;2023-06-22T10:18:59;28.90;99.90
2447;DHT22;26430;48.818;9.244;2023-06-22T10:21:24;29.00;99.90
2447;DHT22;26430;48.818;9.244;2023-06-22T10:23:52;29.10;99.90
2447;DHT22;26430;48.818;9.244;2023-06-22T10:26:18;29.20;99.90
2447;DHT22;26430;48.818;9.244;2023-06-22T10:28:43;29.30;99.90
2447;DHT22;26430;48.818;9.244;2023-06-22T10:31:09;29.50;99.90
2447;DHT22;26430;48.818;9.244;2023-06-22T10:33:34;29.50;99.90
2447;DHT22;26430;48.818;9.244;2023-06-22T10:36:00;29.70;99.90
2447;DHT22;26430;48.818;9.244;2023-06-22T10:38:25;29.90;99.90
2447;DHT22;26430;48.818;9.244;2023-06-22T10:40:51;30.00;99.90
2447;DHT22;26430;48.818;9.244;2023-06-22T10:43:16;30.00;99.90
2447;DHT22;26430;48.818;9.244;2023-06-22T10:45:42;30.20;99.90
2447;DHT22;26430;48.818;9.244;2023-06-22T10:48:08;30.70;99.90
2447;DHT22;26430;48.818;9.244;2023-06-22T10:50:33;31.30;99.90
2447;DHT22;26430;48.818;9.244;2023-06-22T10:52:59;31.90;99.90
2447;DHT22;26430;48.818;9.244;2023-06-22T10:55:24;31.60;99.90
2447;DHT22;26430;48.818;9.244;2023-06-22T10:57:50;31.40;99.90
2447;DHT22;26430;48.818;9.244;2023-06-22T11:00:16;31.10;99.90
2447;DHT22;26430;48.818;9.244;2023-06-22T11:02:41;30.80;99.90
2447;DHT22;26430;48.818;9.244;2023-06-22T11:05:07;30.40;99.90
2447;DHT22;26430;48.818;9.244;2023-06-22T11:07:33;30.40;99.90
2447;DHT22;26430;48.818;9.244;2023-06-22T11:09:59;30.40;99.90
2447;DHT22;26430;48.818;9.244;2023-06-22T11:12:24;30.20;99.90
2447;DHT22;26430;48.818;9.244;2023-06-22T11:14:50;30.20;99.90
2447;DHT22;26430;48.818;9.244;2023-06-22T11:17:17;30.20;99.90
2447;DHT22;26430;48.818;9.244;2023-06-22T11:19:44;30.30;99.90
2447;DHT22;26430;48.818;9.244;2023-06-22T11:22:10;30.20;99.90
2447;DHT22;26430;48.818;9.244;2023-06-22T11:24:35;30.20;99.90
2447;DHT22;26430;48.818;9.244;2023-06-22T11:27:01;30.20;99.90
2447;DHT22;26430;48.818;9.244;2023-06-22T11:29:27;30.00;99.90
2447;DHT22;26430;48.818;9.244;2023-06-22T11:31:52;29.90;99.90
2447;DHT22;26430;48.818;9.244;2023-06-22T11:34:18;29.80;99.90
2447;DHT22;26430;48.818;9.244;2023-06-22T11:36:44;29.80;99.90
2447;DHT22;26430;48.818;9.244;2023-06-22T11:39:10;29.90;99.90
2447;DHT22;26430;48.818;9.244;2023-06-22T11:41:37;30.00;99.90
2447;DHT22;26430;48.818;9.244;2023-06-22T11:44:02;30.10;99.90
2447;DHT22;26430;48.818;9.244;2023-06-22T11:46:29;30.20;99.90
2447;DHT22;26430;48.818;9.244;2023-06-22T11:48:55;30.50;99.90
2447;DHT22;26430;48.818;9.244;2023-06-22T11:51:21;30.80;99.90
2447;DHT22;26430;48.818;9.244;2023-06-22T11:53:46;31.10;99.90
2447;DHT22;26430;48.818;9.244;2023-06-22T11:56:12;31.00;99.90
2447;DHT22;26430;48.818;9.244;2023-06-22T11:58:37;31.20;99.90
2447;DHT22;26430;48.818;9.244;2023-06-22T12:01:03;31.30;99.90
2447;DHT22;26430;48.818;9.244;2023-06-22T12:03:28;31.10;99.90
2447;DHT22;26430;48.818;9.244;2023-06-22T12:05:55;30.80;99.90
2447;DHT22;26430;48.818;9.244;2023-06-22T12:08:22;30.80;99.90
2447;DHT22;26430;48.818;9.244;2023-06-22T12:10:49;30.70;99.90
2447;DHT22;26430;48.818;9.244;2023-06-22T12:13:15;30.80;99.90
2447;DHT22;26430;48.818;9.244;2023-06-22T12:15:41;30.90;99.90
2447;DHT22;26430;48.818;9.244;2023-06-22T12:18:07;30.90;99.90
2447;DHT22;26430;48.818;9.244;2023-06-22T12:20:33;30.90;99.90
2447;DHT22;26430;48.818;9.244;2023-06-22T12:22:59;30.50;99.90
2447;DHT22;26430;48.818;9.244;2023-06-22T12:25:25;30.20;99.90
2447;DHT22;26430;48.818;9.244;2023-06-22T12:27:50;30.30;99.90
2447;DHT22;26430;48.818;9.244;2023-06-22T12:30:16;30.20;99.90
2447;DHT22;26430;48.818;9.244;2023-06-22T12:32:42;30.20;99.90
2447;DHT22;26430;48.818;9.244;2023-06-22T12:35:08;30.40;99.90
2447;DHT22;26430;48.818;9.244;2023-06-22T12:37:41;30.60;99.90
2447;DHT22;26430;48.818;9.244;2023-06-22T12:40:08;30.70;99.90
2447;DHT22;26430;48.818;9.244;2023-06-22T12:42:33;30.70;99.90
2447;DHT22;26430;48.818;9.244;2023-06-22T12:44:59;30.60;99.90
2447;DHT22;26430;48.818;9.244;2023-06-22T12:47:25;30.30;99.90
2447;DHT22;26430;48.818;9.244;2023-06-22T12:49:50;30.20;99.90
2447;DHT22;26430;48.818;9.244;2023-06-22T12:52:16;30.00;99.90
2447;DHT22;26430;48.818;9.244;2023-06-22T12:54:41;30.00;99.90
2447;DHT22;26430;48.818;9.244;2023-06-22T12:57:07;30.00;99.90
2447;DHT22;26430;48.818;9.244;2023-06-22T12:59:32;30.00;99.90
2447;DHT22;26430;48.818;9.244;2023-06-22T13:01:58;30.10;99.90
2447;DHT22;26430;48.818;9.244;2023-06-22T13:04:24;30.10;99.90
2447;DHT22;26430;48.818;9.244;2023-06-22T13:06:49;30.00;99.90
2447;DHT22;26430;48.818;9.244;2023-06-22T13:09:15;30.00;99.90
2447;DHT22;26430;48.818;9.244;2023-06-22T13:11:42;30.00;99.90
2447;DHT22;26430;48.818;9.244;2023-06-22T13:14:08;30.10;99.90
2447;DHT22;26430;48.818;9.244;2023-06-22T13:16:34;29.90;99.90
2447;DHT22;26430;48.818;9.244;2023-06-22T13:18:59;29.90;99.90
2447;DHT22;26430;48.818;9.244;2023-06-22T13:21:25;29.90;99.90
2447;DHT22;26430;48.818;9.244;2023-06-22T13:23:50;30.00;99.90
2447;DHT22;26430;48.818;9.244;2023-06-22T13:26:16;30.10;99.90
2447;DHT22;26430;48.818;9.244;2023-06-22T13:28:41;30.20;99.90
2447;DHT22;26430;48.818;9.244;2023-06-22T13:31:07;30.30;99.90
2447;DHT22;26430;48.818;9.244;2023-06-22T13:33:33;30.40;99.90
2447;DHT22;26430;48.818;9.244;2023-06-22T13:35:58;30.60;99.90
2447;DHT22;26430;48.818;9.244;2023-06-22T13:38:24;30.60;99.90
2447;DHT22;26430;48.818;9.244;2023-06-22T13:40:50;30.70;99.90
2447;DHT22;26430;48.818;9.244;2023-06-22T13:43:16;30.80;99.90
2447;DHT22;26430;48.818;9.244;2023-06-22T13:45:42;30.70;99.90
2447;DHT22;26430;48.818;9.244;2023-06-22T13:48:09;30.70;99.90
2447;DHT22;26430;48.818;9.244;2023-06-22T13:50:34;30.80;99.90
2447;DHT22;26430;48.818;9.244;2023-06-22T13:53:00;30.80;99.90
2447;DHT22;26430;48.818;9.244;2023-06-22T13:55:26;30.80;99.90
2447;DHT22;26430;48.818;9.244;2023-06-22T13:57:52;30.70;99.90
2447;DHT22;26430;48.818;9.244;2023-06-22T14:00:18;30.60;99.90
2447;DHT22;26430;48.818;9.244;2023-06-22T14:02:43;30.60;99.90
2447;DHT22;26430;48.818;9.244;2023-06-22T14:05:11;30.60;99.90
2447;DHT22;26430;48.818;9.244;2023-06-22T14:07:37;30.40;99.90
2447;DHT22;26430;48.818;9.244;2023-06-22T14:10:03;30.40;99.90
2447;DHT22;26430;48.818;9.244;2023-06-22T14:12:29;30.50;99.90
2447;DHT22;26430;48.818;9.244;2023-06-22T14:14:54;30.70;99.90
2447;DHT22;26430;48.818;9.244;2023-06-22T14:17:20;30.80;99.90
2447;DHT22;26430;48.818;9.244;2023-06-22T14:19:49;30.80;99.90
2447;DHT22;26430;48.818;9.244;2023-06-22T14:22:17;31.10;99.90
2447;DHT22;26430;48.818;9.244;2023-06-22T14:24:43;31.30;99.90
2447;DHT22;26430;48.818;9.244;2023-06-22T14:27:08;31.50;99.90
2447;DHT22;26430;48.818;9.244;2023-06-22T14:29:35;31.80;99.90
2447;DHT22;26430;48.818;9.244;2023-06-22T14:32:00;31.60;98.50
2447;DHT22;26430;48.818;9.244;2023-06-22T14:34:26;31.70;98.50
2447;DHT22;26430;48.818;9.244;2023-06-22T14:36:52;31.80;98.70
2447;DHT22;26430;48.818;9.244;2023-06-22T14:39:17;31.60;98.70
2447;DHT22;26430;48.818;9.244;2023-06-22T14:41:43;31.30;98.60
2447;DHT22;26430;48.818;9.244;2023-06-22T14:44:08;31.40;97.70
2447;DHT22;26430;48.818;9.244;2023-06-22T14:46:35;31.40;98.40
2447;DHT22;26430;48.818;9.244;2023-06-22T14:49:00;31.80;99.20
2447;DHT22;26430;48.818;9.244;2023-06-22T14:51:26;32.10;97.90
2447;DHT22;26430;48.818;9.244;2023-06-22T14:53:52;32.20;96.90
2447;DHT22;26430;48.818;9.244;2023-06-22T14:56:18;32.30;95.50
2447;DHT22;26430;48.818;9.244;2023-06-22T14:58:44;32.10;96.20
2447;DHT22;26430;48.818;9.244;2023-06-22T15:01:12;32.30;96.70
2447;DHT22;26430;48.818;9.244;2023-06-22T15:03:38;32.40;97.30
2447;DHT22;26430;48.818;9.244;2023-06-22T15:06:04;32.20;95.80
2447;DHT22;26430;48.818;9.244;2023-06-22T15:08:30;32.00;95.50
2447;DHT22;26430;48.818;9.244;2023-06-22T15:10:58;31.90;96.40
2447;DHT22;26430;48.818;9.244;2023-06-22T15:13:25;31.60;93.30
2447;DHT22;26430;48.818;9.244;2023-06-22T15:15:53;31.60;93.20
2447;DHT22;26430;48.818;9.244;2023-06-22T15:18:18;31.80;90.50
2447;DHT22;26430;48.818;9.244;2023-06-22T15:20:44;32.00;88.00
2447;DHT22;26430;48.818;9.244;2023-06-22T15:23:11;32.20;84.20
2447;DHT22;26430;48.818;9.244;2023-06-22T15:25:37;32.20;81.60
2447;DHT22;26430;48.818;9.244;2023-06-22T15:28:03;32.10;80.70
2447;DHT22;26430;48.818;9.244;2023-06-22T15:30:28;32.10;81.40
2447;DHT22;26430;48.818;9.244;2023-06-22T15:32:54;32.40;81.10
2447;DHT22;26430;48.818;9.244;2023-06-22T15:35:20;32.30;79.00
2447;DHT22;26430;48.818;9.244;2023-06-22T15:37:46;32.00;78.40
2447;DHT22;26430;48.818;9.244;2023-06-22T15:40:11;31.70;76.90
2447;DHT22;26430;48.818;9.244;2023-06-22T15:42:37;31.80;77.50